createdAt,value
2018-09-29T00:00:37.434Z,63.2
2018-09-29T00:05:34.914Z,64.1
2018-09-29T00:10:34.825Z,63.5
2018-09-29T00:15:35.002Z,64.5
2018-09-29T00:20:34.893Z,64
2018-09-29T00:25:34.956Z,62.7
2018-09-29T00:30:34.999Z,61.5
2018-09-29T00:35:34.930Z,60.4
2018-09-29T00:40:34.924Z,61.1
2018-09-29T00:45:35.038Z,60.3
2018-09-29T00:50:34.840Z,60
2018-09-29T00:55:48.258Z,60.1
2018-09-29T01:00:48.213Z,61.7
2018-09-29T01:05:48.125Z,63.2
2018-09-29T01:10:48.039Z,62.1
2018-09-29T01:15:48.116Z,61.7
2018-09-29T01:20:52.480Z,62
2018-09-29T01:25:52.677Z,62.4
2018-09-29T01:30:54.512Z,63.9
2018-09-29T01:35:54.262Z,62.6
2018-09-29T01:41:08.459Z,62.9
2018-09-29T01:46:08.382Z,63.9
2018-09-29T01:51:11.181Z,64.8
2018-09-29T01:56:08.297Z,66.1
2018-09-29T02:01:08.474Z,66.5
2018-09-29T02:06:08.168Z,66.2
2018-09-29T02:11:08.340Z,66
2018-09-29T02:16:09.377Z,66.6
2018-09-29T02:21:09.124Z,67.4
2018-09-29T02:26:21.541Z,68.4
2018-09-29T02:31:21.370Z,69.1
2018-09-29T02:36:21.396Z,71.2
2018-09-29T02:41:21.266Z,70.6
2018-09-29T02:46:21.479Z,71.3
2018-09-29T02:51:21.288Z,74.3
2018-09-29T02:56:21.275Z,74.6
2018-09-29T03:01:24.274Z,74.3
2018-09-29T03:06:24.190Z,73.6
2018-09-29T03:11:35.964Z,73.2
2018-09-29T03:16:35.805Z,74.9
2018-09-29T03:21:35.844Z,76
2018-09-29T03:26:36.053Z,76.4
2018-09-29T03:31:36.185Z,77
2018-09-29T03:36:35.685Z,77
2018-09-29T03:41:35.883Z,76.2
2018-09-29T03:46:37.340Z,76.3
2018-09-29T03:51:37.279Z,76.1
2018-09-29T03:56:49.554Z,74.8
2018-09-29T04:01:49.279Z,74.4
2018-09-29T04:06:49.418Z,73.6
2018-09-29T04:11:49.282Z,74.6
2018-09-29T04:16:49.506Z,75
2018-09-29T04:21:49.296Z,75.5
2018-09-29T04:26:49.278Z,76.2
2018-09-29T04:31:49.497Z,75.8
2018-09-29T04:36:49.548Z,75.7
2018-09-29T04:41:49.322Z,76.2
2018-09-29T04:46:49.526Z,76.9
2018-09-29T04:51:49.419Z,76.1
2018-09-29T04:56:49.516Z,76.9
2018-09-29T05:01:49.595Z,77.9
2018-09-29T05:07:03.332Z,77.2
2018-09-29T05:12:03.048Z,77.1
2018-09-29T05:17:03.212Z,76.7
2018-09-29T05:22:03.193Z,74.8
2018-09-29T05:27:03.200Z,72.2
2018-09-29T05:32:03.209Z,68.8
2018-09-29T05:37:03.036Z,65.8
2018-09-29T05:42:04.623Z,66.8
2018-09-29T05:47:04.559Z,66.3
2018-09-29T05:52:16.692Z,65.3
2018-09-29T05:57:16.598Z,65.6
2018-09-29T06:02:16.405Z,66
2018-09-29T06:07:16.954Z,65.4
2018-09-29T06:12:16.594Z,65.3
2018-09-29T06:17:16.657Z,64.6
2018-09-29T06:22:16.467Z,65.6
2018-09-29T06:27:16.687Z,64.6
2018-09-29T06:32:16.833Z,64.2
2018-09-29T06:37:29.169Z,63.7
2018-09-29T06:42:29.117Z,63.8
2018-09-29T06:47:29.022Z,64.1
2018-09-29T06:52:28.874Z,63.5
2018-09-29T06:57:28.913Z,63.7
2018-09-29T07:02:29.153Z,62.8
2018-09-29T07:07:29.074Z,62.3
2018-09-29T07:12:28.932Z,60.8
2018-09-29T07:17:29.183Z,60.9
2018-09-29T07:22:40.474Z,60.3
2018-09-29T07:27:40.416Z,59.7
2018-09-29T07:32:40.180Z,58.2
2018-09-29T07:37:40.197Z,59.5
2018-09-29T07:42:40.168Z,58.1
2018-09-29T07:47:40.417Z,58.6
2018-09-29T07:52:40.201Z,58.2
2018-09-29T07:57:40.291Z,57.8
2018-09-29T08:02:40.316Z,55.9
2018-09-29T08:07:53.164Z,56.5
2018-09-29T08:12:53.054Z,56.9
2018-09-29T08:17:53.125Z,56.9
2018-09-29T08:22:53.059Z,54.6
2018-09-29T08:27:53.066Z,54.4
2018-09-29T08:32:52.888Z,53.3
2018-09-29T08:37:53.404Z,52.6
2018-09-29T08:42:53.153Z,52.2
2018-09-29T08:47:52.919Z,54.1
2018-09-29T08:53:05.133Z,52.9
2018-09-29T08:58:04.728Z,53.3
2018-09-29T09:03:04.738Z,53.8
2018-09-29T09:08:04.848Z,53.4
2018-09-29T09:13:04.959Z,53.6
2018-09-29T09:18:04.829Z,53
2018-09-29T09:23:05.155Z,53.3
2018-09-29T09:28:04.812Z,53.4
2018-09-29T09:33:04.835Z,52.7
2018-09-29T09:38:04.816Z,51.3
2018-09-29T09:43:04.853Z,53.5
2018-09-29T09:48:05.294Z,52.7
2018-09-29T09:53:04.804Z,51.5
2018-09-29T09:58:04.825Z,50.7
2018-09-29T10:03:16.194Z,50.8
2018-09-29T10:08:16.062Z,49.4
2018-09-29T10:13:16.098Z,49.3
2018-09-29T10:18:15.944Z,48.3
2018-09-29T10:23:16.079Z,47.2
2018-09-29T10:28:15.943Z,47.5
2018-09-29T10:33:15.935Z,47.4
2018-09-29T10:38:15.909Z,48.3
2018-09-29T10:43:15.906Z,45.7
2018-09-29T10:48:28.101Z,46.3
2018-09-29T10:53:27.844Z,44.9
2018-09-29T10:58:28.267Z,45.3
2018-09-29T11:03:27.974Z,44.1
2018-09-29T11:08:27.914Z,43.4
2018-09-29T11:13:27.968Z,45.4
2018-09-29T11:18:27.948Z,45.6
2018-09-29T11:23:33.003Z,45.3
2018-09-29T11:28:32.731Z,44.1
2018-09-29T11:33:45.109Z,44.7
2018-09-29T11:38:44.864Z,44.9
2018-09-29T11:43:44.877Z,43.2
2018-09-29T11:48:45.108Z,42.9
2018-09-29T11:53:44.936Z,43.1
2018-09-29T11:58:45.131Z,42.6
2018-09-29T12:03:44.891Z,44.2
2018-09-29T12:08:44.936Z,43.8
2018-09-29T12:13:45.044Z,42.5
2018-09-29T12:18:55.803Z,42.3
2018-09-29T12:23:56.750Z,42.7
2018-09-29T12:28:55.472Z,42.4
2018-09-29T12:33:55.504Z,42.7
2018-09-29T12:38:55.686Z,42
2018-09-29T12:43:55.553Z,41.5
2018-09-29T12:48:55.765Z,42
2018-09-29T12:53:56.490Z,41.7
2018-09-29T12:58:56.656Z,41.5
2018-09-29T13:04:08.353Z,41.1
2018-09-29T13:09:08.323Z,41
2018-09-29T13:14:08.040Z,40.4
2018-09-29T13:19:08.065Z,40.8
2018-09-29T13:24:08.302Z,38.9
2018-09-29T13:29:08.040Z,39.7
2018-09-29T13:34:08.256Z,37.7
2018-09-29T13:39:08.089Z,36.7
2018-09-29T13:44:08.082Z,37.2
2018-09-29T13:49:20.940Z,36.8
2018-09-29T13:54:20.723Z,37.4
2018-09-29T13:59:20.626Z,37.1
2018-09-29T14:04:20.650Z,37.7
2018-09-29T14:09:20.776Z,37.1
2018-09-29T14:14:20.727Z,35.7
2018-09-29T14:19:20.699Z,34.4
2018-09-29T14:24:25.308Z,36
2018-09-29T14:29:24.996Z,36
2018-09-29T14:34:36.981Z,33.2
2018-09-29T14:39:36.743Z,35.2
2018-09-29T14:44:36.729Z,33.8
2018-09-29T14:49:36.737Z,34.8
2018-09-29T14:54:36.757Z,34
2018-09-29T14:59:36.748Z,34.8
2018-09-29T15:04:36.763Z,33.6
2018-09-29T15:09:36.737Z,33.5
2018-09-29T15:14:36.757Z,35.4
2018-09-29T15:19:47.249Z,37
2018-09-29T15:24:46.972Z,38.6
2018-09-29T15:29:46.967Z,38.7
2018-09-29T15:34:46.964Z,38.7
2018-09-29T15:39:46.969Z,38.7
2018-09-29T15:44:50.526Z,40.3
2018-09-29T15:49:50.355Z,41.5
2018-09-29T15:54:52.527Z,42.8
2018-09-29T15:59:52.271Z,43.3
2018-09-29T16:05:04.163Z,43.3
2018-09-29T16:10:03.831Z,43.6
2018-09-29T16:15:03.908Z,43.8
2018-09-29T16:20:03.890Z,43.8
2018-09-29T16:25:03.806Z,44.4
2018-09-29T16:30:03.920Z,43.8
2018-09-29T16:35:03.842Z,44.8
2018-09-29T16:40:03.844Z,45.1
2018-09-29T16:45:05.257Z,46.2
2018-09-29T16:50:14.513Z,45.6
2018-09-29T16:55:14.218Z,46.6
2018-09-29T17:00:14.218Z,47.6
2018-09-29T17:05:14.235Z,47.8
2018-09-29T17:10:14.241Z,48.3
2018-09-29T17:15:14.269Z,49.3
2018-09-29T17:20:17.128Z,50.2
2018-09-29T17:25:14.236Z,50.6
2018-09-29T17:30:14.265Z,53.3
2018-09-29T17:35:25.079Z,54.7
2018-09-29T17:40:24.775Z,53.8
2018-09-29T17:45:24.933Z,55.6
2018-09-29T17:50:24.813Z,55.9
2018-09-29T17:55:24.844Z,58
2018-09-29T18:00:24.833Z,58.1
2018-09-29T18:05:27.835Z,57.2
2018-09-29T18:10:24.991Z,56.7
2018-09-29T18:15:25.007Z,56.6
2018-09-29T18:20:36.580Z,57.2
2018-09-29T18:25:36.307Z,58.6
2018-09-29T18:30:36.287Z,57.9
2018-09-29T18:35:36.464Z,58.7
2018-09-29T18:40:36.284Z,59
2018-09-29T18:45:36.531Z,57.5
2018-09-29T18:50:36.443Z,57.6
2018-09-29T18:55:36.279Z,57.5
2018-09-29T19:00:36.290Z,58.4
2018-09-29T19:05:48.161Z,58.8
2018-09-29T19:10:47.852Z,57.7
2018-09-29T19:15:48.099Z,57.1
2018-09-29T19:20:49.836Z,56.9
2018-09-29T19:25:49.847Z,56.6
2018-09-29T19:30:49.881Z,56.4
2018-09-29T19:35:50.159Z,56.7
2018-09-29T19:40:49.833Z,57.1
2018-09-29T19:45:50.301Z,57.9
2018-09-29T19:51:02.008Z,58
2018-09-29T19:56:01.829Z,58.3
2018-09-29T20:01:01.881Z,58.2
2018-09-29T20:06:01.949Z,59.2
2018-09-29T20:11:01.856Z,60.1
2018-09-29T20:16:01.844Z,60.5
2018-09-29T20:21:01.866Z,60.4
2018-09-29T20:26:01.870Z,59.3
2018-09-29T20:31:01.986Z,59.6
2018-09-29T20:36:02.014Z,59.5
2018-09-29T20:41:01.855Z,60.4
2018-09-29T20:46:02.093Z,60.7
2018-09-29T20:51:02.135Z,60.2
2018-09-29T20:56:02.254Z,60.6
2018-09-29T21:01:14.627Z,60.9
2018-09-29T21:06:14.558Z,61.6
2018-09-29T21:11:15.602Z,61.1
2018-09-29T21:16:14.626Z,61.9
2018-09-29T21:21:14.359Z,62.4
2018-09-29T21:26:14.350Z,62.5
2018-09-29T21:31:14.518Z,63.2
2018-09-29T21:36:16.294Z,62.8
2018-09-29T21:41:16.016Z,63.1
2018-09-29T21:46:29.709Z,63.7
2018-09-29T21:51:29.586Z,64
2018-09-29T21:56:29.603Z,64
2018-09-29T22:01:29.459Z,64.4
2018-09-29T22:06:29.582Z,64.7
2018-09-29T22:11:29.465Z,64.9
2018-09-29T22:16:29.486Z,65.1
2018-09-29T22:21:29.447Z,65.2
2018-09-29T22:26:29.469Z,65.6
2018-09-29T22:31:40.235Z,65
2018-09-29T22:36:39.860Z,65.8
2018-09-29T22:41:39.972Z,65.9
2018-09-29T22:46:39.891Z,66.1
2018-09-29T22:51:39.880Z,66.4
2018-09-29T22:56:39.880Z,66.3
2018-09-29T23:01:39.882Z,66.2
2018-09-29T23:06:40.095Z,66
2018-09-29T23:11:40.081Z,66.8
2018-09-29T23:16:51.988Z,66.9
2018-09-29T23:21:51.581Z,67.4
2018-09-29T23:26:51.596Z,67
2018-09-29T23:31:51.553Z,67.4
2018-09-29T23:36:51.807Z,67.7
2018-09-29T23:41:51.826Z,68.1
2018-09-29T23:46:51.766Z,68.3
2018-09-29T23:51:51.608Z,68.6
2018-09-29T23:56:51.830Z,69.2
